createdAt,value
2018-05-24T00:02:00.645Z,6.33
2018-05-24T00:04:28.106Z,6.57
2018-05-24T00:06:55.543Z,5.80
2018-05-24T00:09:23.020Z,6.03
2018-05-24T00:11:50.476Z,6.40
2018-05-24T00:14:17.948Z,5.70
2018-05-24T00:16:45.788Z,6.30
2018-05-24T00:19:13.276Z,6.40
2018-05-24T00:21:40.727Z,6.63
2018-05-24T00:24:08.278Z,5.60
2018-05-24T00:26:35.957Z,6.27
2018-05-24T00:29:03.393Z,5.97
2018-05-24T00:31:30.999Z,7.27
2018-05-24T00:33:58.475Z,5.20
2018-05-24T00:36:26.295Z,5.83
2018-05-24T00:38:53.744Z,6.13
2018-05-24T00:41:21.192Z,6.70
2018-05-24T00:43:48.698Z,7.30
2018-05-24T00:46:16.160Z,7.00
2018-05-24T00:48:43.687Z,5.63
2018-05-24T00:51:11.128Z,8.20
2018-05-24T00:53:38.560Z,7.50
2018-05-24T00:56:06.000Z,7.00
2018-05-24T00:58:33.481Z,7.10
2018-05-24T01:01:00.944Z,7.43
2018-05-24T01:03:28.482Z,5.70
2018-05-24T01:05:55.942Z,5.50
2018-05-24T01:08:23.400Z,6.73
2018-05-24T01:10:50.851Z,6.00
2018-05-24T01:13:18.309Z,6.40
2018-05-24T01:15:45.838Z,7.67
2018-05-24T01:18:13.562Z,7.23
2018-05-24T01:20:41.012Z,6.37
2018-05-24T01:23:08.458Z,5.63
2018-05-24T01:25:35.974Z,7.00
2018-05-24T01:28:03.441Z,7.10
2018-05-24T01:30:32.529Z,7.70
2018-05-24T01:32:59.973Z,6.60
2018-05-24T01:35:27.428Z,8.70
2018-05-24T01:37:55.123Z,4.90
2018-05-24T01:40:22.576Z,5.53
2018-05-24T01:42:50.032Z,8.10
2018-05-24T01:45:17.479Z,6.93
2018-05-24T01:47:44.919Z,6.67
2018-05-24T01:50:12.380Z,8.07
2018-05-24T01:52:39.837Z,8.47
2018-05-24T01:55:07.311Z,6.50
2018-05-24T01:57:34.758Z,7.50
2018-05-24T02:00:02.233Z,7.47
2018-05-24T02:02:30.036Z,8.40
2018-05-24T02:04:57.472Z,7.10
2018-05-24T02:07:24.928Z,6.87
2018-05-24T02:09:52.405Z,6.80
2018-05-24T02:12:19.873Z,6.33
2018-05-24T02:14:47.572Z,8.50
2018-05-24T02:17:15.199Z,6.33
2018-05-24T02:19:42.667Z,7.90
2018-05-24T02:22:10.121Z,7.60
2018-05-24T02:24:37.588Z,7.33
2018-05-24T02:27:05.043Z,7.10
2018-05-24T02:29:32.496Z,7.00
2018-05-24T02:31:59.993Z,6.30
2018-05-24T02:34:27.500Z,6.27
2018-05-24T02:36:54.944Z,7.80
2018-05-24T02:39:22.410Z,7.57
2018-05-24T02:41:49.860Z,6.93
2018-05-24T02:44:17.296Z,7.30
2018-05-24T02:46:44.747Z,6.27
2018-05-24T02:49:12.197Z,7.30
2018-05-24T02:51:39.679Z,8.50
2018-05-24T02:54:07.131Z,8.33
2018-05-24T02:56:34.575Z,7.70
2018-05-24T02:59:02.032Z,7.23
2018-05-24T03:01:29.580Z,7.10
2018-05-24T03:03:57.090Z,9.20
2018-05-24T03:06:24.528Z,7.30
2018-05-24T03:08:51.967Z,6.50
2018-05-24T03:11:19.464Z,7.77
2018-05-24T03:13:46.916Z,7.80
2018-05-24T03:16:14.366Z,7.40
2018-05-24T03:18:41.812Z,6.83
2018-05-24T03:21:09.614Z,8.00
2018-05-24T03:23:37.469Z,7.80
2018-05-24T03:26:04.917Z,7.50
2018-05-24T03:28:32.392Z,7.43
2018-05-24T03:30:59.848Z,8.00
2018-05-24T03:33:27.292Z,7.17
2018-05-24T03:35:54.810Z,7.10
2018-05-24T03:38:22.677Z,6.10
2018-05-24T03:40:50.114Z,6.73
2018-05-24T03:43:17.599Z,7.90
2018-05-24T03:45:45.042Z,7.53
2018-05-24T03:48:12.901Z,8.40
2018-05-24T03:50:40.380Z,6.90
2018-05-24T03:53:07.854Z,7.93
2018-05-24T03:55:35.292Z,8.17
2018-05-24T03:58:02.743Z,8.10
2018-05-24T04:00:42.085Z,8.70
2018-05-24T04:03:21.375Z,8.00
2018-05-24T04:05:48.979Z,6.10
2018-05-24T04:08:16.367Z,6.53
2018-05-24T04:10:43.900Z,7.10
2018-05-24T04:13:11.308Z,8.20
2018-05-24T04:15:38.740Z,6.53
2018-05-24T04:18:06.195Z,6.80
2018-05-24T04:20:33.739Z,6.73
2018-05-24T04:23:01.200Z,7.30
2018-05-24T04:25:28.990Z,5.97
2018-05-24T04:27:56.539Z,6.40
2018-05-24T04:30:23.939Z,7.00
2018-05-24T04:32:51.391Z,6.73
2018-05-24T04:35:18.840Z,6.40
2018-05-24T04:37:46.368Z,6.13
2018-05-24T04:40:13.812Z,6.87
2018-05-24T04:42:41.303Z,6.90
2018-05-24T04:45:08.751Z,6.60
2018-05-24T04:47:36.240Z,6.90
2018-05-24T04:50:04.018Z,7.50
2018-05-24T04:52:31.460Z,6.30
2018-05-24T04:54:59.019Z,6.07
2018-05-24T04:57:26.467Z,5.80
2018-05-24T04:59:54.271Z,6.70
2018-05-24T05:02:21.744Z,4.73
2018-05-24T05:04:49.211Z,5.53
2018-05-24T05:07:16.655Z,6.00
2018-05-24T05:09:44.112Z,5.30
2018-05-24T05:12:11.580Z,5.83
2018-05-24T05:14:39.091Z,5.47
2018-05-24T05:17:06.459Z,5.90
2018-05-24T05:19:33.975Z,5.50
2018-05-24T05:22:01.424Z,6.10
2018-05-24T05:24:28.967Z,5.87
2018-05-24T05:26:56.406Z,5.50
2018-05-24T05:29:23.843Z,5.73
2018-05-24T05:31:51.302Z,5.17
2018-05-24T05:34:18.748Z,5.90
2018-05-24T05:36:46.288Z,5.03
2018-05-24T05:39:13.725Z,5.17
2018-05-24T05:41:41.191Z,4.87
2018-05-24T05:44:09.391Z,4.83
2018-05-24T05:46:36.867Z,4.33
2018-05-24T05:49:04.723Z,4.83
2018-05-24T05:51:32.183Z,5.47
2018-05-24T05:53:59.663Z,4.20
2018-05-24T05:56:27.137Z,5.90
2018-05-24T05:58:54.626Z,5.00
2018-05-24T06:01:22.862Z,5.80
2018-05-24T06:03:50.311Z,5.70
2018-05-24T06:06:17.779Z,6.13
2018-05-24T06:08:45.241Z,4.40
2018-05-24T06:11:12.695Z,4.90
2018-05-24T06:13:40.170Z,4.60
2018-05-24T06:16:07.604Z,5.13
2018-05-24T06:18:35.080Z,5.40
2018-05-24T06:21:02.545Z,5.13
2018-05-24T06:23:29.991Z,5.80
2018-05-24T06:25:57.495Z,5.60
2018-05-24T06:28:25.022Z,5.83
2018-05-24T06:30:52.400Z,4.73
2018-05-24T06:33:19.871Z,5.93
2018-05-24T06:35:47.724Z,6.00
2018-05-24T06:38:15.167Z,5.73
2018-05-24T06:40:42.657Z,6.20
2018-05-24T06:43:10.100Z,5.12
2018-05-24T06:45:37.647Z,5.60
2018-05-24T06:48:05.071Z,6.87
2018-05-24T06:50:33.297Z,5.10
2018-05-24T06:53:01.209Z,5.00
2018-05-24T06:55:28.661Z,4.73
2018-05-24T06:57:56.340Z,5.03
2018-05-24T07:00:23.974Z,5.23
2018-05-24T07:02:51.428Z,3.90
2018-05-24T07:05:18.865Z,4.63
2018-05-24T07:07:47.149Z,4.60
2018-05-24T07:10:14.680Z,5.80
2018-05-24T07:12:42.188Z,5.27
2018-05-24T07:15:10.337Z,5.57
2018-05-24T07:17:37.761Z,4.90
2018-05-24T07:20:05.204Z,5.40
2018-05-24T07:22:32.648Z,5.50
2018-05-24T07:25:00.693Z,4.50
2018-05-24T07:27:28.187Z,3.93
2018-05-24T07:29:55.631Z,5.23
2018-05-24T07:32:23.216Z,6.00
2018-05-24T07:34:50.659Z,5.60
2018-05-24T07:37:18.099Z,5.72
2018-05-24T07:39:46.379Z,5.57
2018-05-24T07:42:14.106Z,5.83
2018-05-24T07:44:41.539Z,5.80
2018-05-24T07:47:09.003Z,7.40
2018-05-24T07:49:36.457Z,5.23
2018-05-24T07:52:03.898Z,6.10
2018-05-24T07:54:31.437Z,4.60
2018-05-24T07:56:58.875Z,5.37
2018-05-24T07:59:26.331Z,6.10
2018-05-24T08:01:53.770Z,5.93
2018-05-24T08:04:21.221Z,5.47
2018-05-24T08:06:48.668Z,6.20
2018-05-24T08:09:16.108Z,6.13
2018-05-24T08:11:43.586Z,6.03
2018-05-24T08:14:11.032Z,6.57
2018-05-24T08:16:38.542Z,6.90
2018-05-24T08:19:06.001Z,6.40
2018-05-24T08:21:33.453Z,8.53
2018-05-24T08:24:00.910Z,6.37
2018-05-24T08:26:28.344Z,6.27
2018-05-24T08:28:55.921Z,6.00
2018-05-24T08:31:23.375Z,7.00
2018-05-24T08:33:50.812Z,5.90
2018-05-24T08:36:18.306Z,6.55
2018-05-24T08:38:45.782Z,7.28
2018-05-24T08:41:13.224Z,7.80
2018-05-24T08:43:40.666Z,8.00
2018-05-24T08:46:08.603Z,6.97
2018-05-24T08:48:36.813Z,7.33
2018-05-24T08:51:04.261Z,7.27
2018-05-24T08:53:31.742Z,6.73
2018-05-24T08:55:59.244Z,6.60
2018-05-24T08:58:26.695Z,7.00
2018-05-24T09:00:54.150Z,7.77
2018-05-24T09:03:21.591Z,7.30
2018-05-24T09:05:49.412Z,6.13
2018-05-24T09:08:16.912Z,7.75
2018-05-24T09:10:44.361Z,6.87
2018-05-24T09:13:11.816Z,8.37
2018-05-24T09:15:39.249Z,7.77
2018-05-24T09:18:06.719Z,6.90
2018-05-24T09:20:34.284Z,7.87
2018-05-24T09:23:01.741Z,7.97
2018-05-24T09:25:29.189Z,7.70
2018-05-24T09:27:56.671Z,6.90
2018-05-24T09:30:24.141Z,7.00
2018-05-24T09:32:51.575Z,7.37
2018-05-24T09:35:19.012Z,7.43
2018-05-24T09:37:46.474Z,6.77
2018-05-24T09:40:14.381Z,7.23
2018-05-24T09:42:41.814Z,7.95
2018-05-24T09:45:09.242Z,7.37
2018-05-24T09:47:36.698Z,8.20
2018-05-24T09:50:04.161Z,6.03
2018-05-24T09:52:31.619Z,7.03
2018-05-24T09:54:59.083Z,7.10
2018-05-24T09:57:26.523Z,6.47
2018-05-24T09:59:53.966Z,7.00
2018-05-24T10:02:21.420Z,8.30
2018-05-24T10:04:49.000Z,8.00
2018-05-24T10:07:16.441Z,8.10
2018-05-24T10:09:43.887Z,7.60
2018-05-24T10:12:11.588Z,6.83
2018-05-24T10:14:39.035Z,7.40
2018-05-24T10:17:06.709Z,7.63
2018-05-24T10:19:34.204Z,7.43
2018-05-24T10:22:01.670Z,5.93
2018-05-24T10:24:29.108Z,6.70
2018-05-24T10:26:56.912Z,7.43
2018-05-24T10:29:24.351Z,6.37
2018-05-24T10:31:51.836Z,6.83
2018-05-24T10:34:19.287Z,7.30
2018-05-24T10:36:47.127Z,6.50
2018-05-24T10:39:14.631Z,7.33
2018-05-24T10:41:42.077Z,7.63
2018-05-24T10:44:09.621Z,6.90
2018-05-24T10:46:37.060Z,5.20
2018-05-24T10:49:04.523Z,5.30
2018-05-24T10:51:32.014Z,7.20
2018-05-24T10:53:59.453Z,7.10
2018-05-24T10:56:26.907Z,6.00
2018-05-24T10:58:54.377Z,6.87
2018-05-24T11:01:21.840Z,5.80
2018-05-24T11:03:49.307Z,5.43
2018-05-24T11:06:16.828Z,4.40
2018-05-24T11:08:44.208Z,6.13
2018-05-24T11:11:12.010Z,6.00
2018-05-24T11:13:39.896Z,5.30
2018-05-24T11:16:07.356Z,5.63
2018-05-24T11:18:34.814Z,5.00
2018-05-24T11:21:02.256Z,6.13
2018-05-24T11:23:29.699Z,5.57
2018-05-24T11:25:57.136Z,6.17
2018-05-24T11:28:24.595Z,6.37
2018-05-24T11:30:52.023Z,6.13
2018-05-24T11:33:19.571Z,6.60
2018-05-24T11:35:47.013Z,7.30
2018-05-24T11:38:14.466Z,4.73
2018-05-24T11:40:41.916Z,5.80
2018-05-24T11:43:09.408Z,5.20
2018-05-24T11:45:36.796Z,6.60
2018-05-24T11:48:04.234Z,6.80
2018-05-24T11:50:32.598Z,6.10
2018-05-24T11:53:01.302Z,6.10
2018-05-24T11:55:28.739Z,7.50
2018-05-24T11:57:56.203Z,6.43
2018-05-24T12:00:23.696Z,6.53
2018-05-24T12:02:51.271Z,6.20
2018-05-24T12:05:18.707Z,5.60
2018-05-24T12:07:46.172Z,7.63
2018-05-24T12:10:13.965Z,5.00
2018-05-24T12:12:41.420Z,5.23
2018-05-24T12:15:08.920Z,7.00
2018-05-24T12:17:36.524Z,5.70
2018-05-24T12:20:03.998Z,4.90
2018-05-24T12:22:31.441Z,5.23
2018-05-24T12:24:58.876Z,4.73
2018-05-24T12:27:27.285Z,4.90
2018-05-24T12:29:54.890Z,4.70
2018-05-24T12:32:22.356Z,5.07
2018-05-24T12:34:49.804Z,6.00
2018-05-24T12:37:18.098Z,4.20
2018-05-24T12:39:45.556Z,4.87
2018-05-24T12:42:13.000Z,5.67
2018-05-24T12:44:40.884Z,5.13
2018-05-24T12:47:08.363Z,5.13
2018-05-24T12:49:35.799Z,5.73
2018-05-24T12:52:03.252Z,4.40
2018-05-24T12:54:30.704Z,4.77
2018-05-24T12:56:58.206Z,4.73
2018-05-24T12:59:25.653Z,4.77
2018-05-24T13:01:53.096Z,4.73
2018-05-24T13:04:20.610Z,4.10
2018-05-24T13:06:48.062Z,4.62
2018-05-24T13:09:15.511Z,3.93
2018-05-24T13:11:42.994Z,4.07
2018-05-24T13:14:10.440Z,5.03
2018-05-24T13:16:38.010Z,4.30
2018-05-24T13:19:05.451Z,4.40
2018-05-24T13:21:33.226Z,4.70
2018-05-24T13:24:00.663Z,4.00
2018-05-24T13:26:28.133Z,4.10
2018-05-24T13:28:55.589Z,4.07
2018-05-24T13:31:23.050Z,4.57
2018-05-24T13:33:50.504Z,3.97
2018-05-24T13:36:17.958Z,4.17
2018-05-24T13:38:45.407Z,4.10
2018-05-24T13:41:12.867Z,3.63
2018-05-24T13:43:40.333Z,4.43
2018-05-24T13:46:07.788Z,4.53
2018-05-24T13:48:35.224Z,4.60
2018-05-24T13:51:03.052Z,4.17
2018-05-24T13:53:30.496Z,4.63
2018-05-24T13:55:57.940Z,4.03
2018-05-24T13:58:25.844Z,4.73
2018-05-24T14:00:53.391Z,4.00
2018-05-24T14:03:21.201Z,2.70
2018-05-24T14:05:48.664Z,3.30
2018-05-24T14:08:16.098Z,4.00
2018-05-24T14:10:43.553Z,3.83
2018-05-24T14:13:11.039Z,3.30
2018-05-24T14:15:38.479Z,3.63
2018-05-24T14:18:06.040Z,4.10
2018-05-24T14:20:33.479Z,4.00
2018-05-24T14:23:00.944Z,3.63
2018-05-24T14:25:28.378Z,3.73
2018-05-24T14:27:56.135Z,3.50
2018-05-24T14:30:23.668Z,3.00
2018-05-24T14:32:51.110Z,4.10
2018-05-24T14:35:18.779Z,3.53
2018-05-24T14:37:46.548Z,3.33
2018-05-24T14:40:13.992Z,4.10
2018-05-24T14:42:41.468Z,3.10
2018-05-24T14:45:09.149Z,3.23
2018-05-24T14:47:37.578Z,3.87
2018-05-24T14:50:05.024Z,3.00
2018-05-24T14:52:32.467Z,3.63
2018-05-24T14:54:59.939Z,3.30
2018-05-24T14:57:27.387Z,2.70
2018-05-24T14:59:54.843Z,3.73
2018-05-24T15:02:22.276Z,3.63
2018-05-24T15:04:49.853Z,3.20
2018-05-24T15:07:17.276Z,2.90
2018-05-24T15:09:44.774Z,3.07
2018-05-24T15:12:12.241Z,2.80
2018-05-24T15:14:39.682Z,2.30
2018-05-24T15:17:07.487Z,2.73
2018-05-24T15:19:34.936Z,2.80
2018-05-24T15:22:02.378Z,3.33
2018-05-24T15:24:29.897Z,2.73
2018-05-24T15:26:57.327Z,3.67
2018-05-24T15:29:24.781Z,3.37
2018-05-24T15:31:52.249Z,2.57
2018-05-24T15:34:19.703Z,3.00
2018-05-24T15:36:47.159Z,2.63
2018-05-24T15:39:14.598Z,3.63
2018-05-24T15:41:42.060Z,2.80
2018-05-24T15:44:09.970Z,2.77
2018-05-24T15:46:37.413Z,2.53
2018-05-24T15:49:04.900Z,3.50
2018-05-24T15:51:32.445Z,3.20
2018-05-24T15:53:59.901Z,2.93
2018-05-24T15:56:27.365Z,2.87
2018-05-24T15:58:54.808Z,2.97
2018-05-24T16:01:22.993Z,3.10
2018-05-24T16:03:50.459Z,3.17
2018-05-24T16:06:17.907Z,3.07
2018-05-24T16:08:45.358Z,2.80
2018-05-24T16:11:12.949Z,2.90
2018-05-24T16:13:40.449Z,3.00
2018-05-24T16:16:07.832Z,3.50
2018-05-24T16:18:35.280Z,2.43
2018-05-24T16:21:02.742Z,3.00
2018-05-24T16:23:30.278Z,4.43
2018-05-24T16:25:58.053Z,3.00
2018-05-24T16:28:25.488Z,3.00
2018-05-24T16:30:52.980Z,4.13
2018-05-24T16:33:21.342Z,2.90
2018-05-24T16:35:48.789Z,3.20
2018-05-24T16:38:16.436Z,3.90
2018-05-24T16:40:44.656Z,3.07
2018-05-24T16:43:12.327Z,3.13
2018-05-24T16:45:39.779Z,3.10
2018-05-24T16:48:07.259Z,3.10
2018-05-24T16:50:34.816Z,3.10
2018-05-24T16:53:02.270Z,3.07
2018-05-24T16:55:29.725Z,2.90
2018-05-24T16:57:57.170Z,3.73
2018-05-24T17:00:24.626Z,3.47
2018-05-24T17:02:52.083Z,3.00
2018-05-24T17:05:19.530Z,3.00
2018-05-24T17:07:46.980Z,2.63
2018-05-24T17:10:14.433Z,3.43
2018-05-24T17:12:42.276Z,3.27
2018-05-24T17:15:09.740Z,2.63
2018-05-24T17:17:37.640Z,3.33
2018-05-24T17:20:05.068Z,4.30
2018-05-24T17:22:32.533Z,3.13
2018-05-24T17:24:59.985Z,2.90
2018-05-24T17:27:27.443Z,2.50
2018-05-24T17:29:55.002Z,2.80
2018-05-24T17:32:22.452Z,1.93
2018-05-24T17:34:49.925Z,3.53
2018-05-24T17:37:17.360Z,2.90
2018-05-24T17:39:44.859Z,3.03
2018-05-24T17:42:12.310Z,2.67
2018-05-24T17:44:39.764Z,3.27
2018-05-24T17:47:07.199Z,2.40
2018-05-24T17:49:34.693Z,3.20
2018-05-24T17:52:02.137Z,2.83
2018-05-24T17:54:29.574Z,2.20
2018-05-24T17:56:57.020Z,2.50
2018-05-24T17:59:24.486Z,1.77
2018-05-24T18:01:52.123Z,2.67
2018-05-24T18:04:19.576Z,2.50
2018-05-24T18:06:47.017Z,2.40
2018-05-24T18:09:14.459Z,3.50
2018-05-24T18:11:42.699Z,2.40
2018-05-24T18:14:10.144Z,2.70
2018-05-24T18:16:37.578Z,3.37
2018-05-24T18:19:05.036Z,2.73
2018-05-24T18:21:32.879Z,3.20
2018-05-24T18:24:00.332Z,2.70
2018-05-24T18:26:28.076Z,3.57
2018-05-24T18:28:55.679Z,3.60
2018-05-24T18:31:23.141Z,2.70
2018-05-24T18:33:50.581Z,2.70
2018-05-24T18:36:18.065Z,3.30
2018-05-24T18:38:45.506Z,3.47
2018-05-24T18:41:12.963Z,3.60
2018-05-24T18:43:41.283Z,3.13
2018-05-24T18:46:08.716Z,3.33
2018-05-24T18:48:36.180Z,2.60
2018-05-24T18:51:03.643Z,4.27
2018-05-24T18:53:31.108Z,3.17
2018-05-24T18:55:58.949Z,3.37
2018-05-24T18:58:26.387Z,3.53
2018-05-24T19:00:54.356Z,4.00
2018-05-24T19:03:21.779Z,3.50
2018-05-24T19:05:49.620Z,3.83
2018-05-24T19:08:17.099Z,3.53
2018-05-24T19:10:44.547Z,3.87
2018-05-24T19:13:11.992Z,4.10
2018-05-24T19:15:39.432Z,3.70
2018-05-24T19:18:06.889Z,4.10
2018-05-24T19:20:34.458Z,4.97
2018-05-24T19:23:01.899Z,3.50
2018-05-24T19:25:29.357Z,3.97
2018-05-24T19:27:57.180Z,5.03
2018-05-24T19:30:27.364Z,4.03
2018-05-24T19:32:56.543Z,4.47
2018-05-24T19:35:24.759Z,4.00
2018-05-24T19:37:52.217Z,5.50
2018-05-24T19:40:19.657Z,5.03
2018-05-24T19:42:47.149Z,5.57
2018-05-24T19:45:14.607Z,4.33
2018-05-24T19:47:42.047Z,5.30
2018-05-24T19:50:09.941Z,4.90
2018-05-24T19:52:37.369Z,4.20
2018-05-24T19:55:04.822Z,4.60
2018-05-24T19:57:32.329Z,5.17
2018-05-24T19:59:59.763Z,4.57
2018-05-24T20:02:27.913Z,5.40
2018-05-24T20:04:55.391Z,5.53
2018-05-24T20:07:22.831Z,6.40
2018-05-24T20:09:50.295Z,5.87
2018-05-24T20:12:17.844Z,5.83
2018-05-24T20:14:45.371Z,4.80
2018-05-24T20:17:13.024Z,4.43
2018-05-24T20:19:40.652Z,3.97
2018-05-24T20:22:08.166Z,6.03
2018-05-24T20:24:35.604Z,6.07
2018-05-24T20:27:03.420Z,5.43
2018-05-24T20:29:30.869Z,5.40
2018-05-24T20:31:58.338Z,5.00
2018-05-24T20:34:25.792Z,5.90
2018-05-24T20:36:53.279Z,6.27
2018-05-24T20:39:20.723Z,4.83
2018-05-24T20:41:48.199Z,5.70
2018-05-24T20:44:15.676Z,6.10
2018-05-24T20:46:43.119Z,4.90
2018-05-24T20:49:10.583Z,5.73
2018-05-24T20:51:38.039Z,5.77
2018-05-24T20:54:05.484Z,6.50
2018-05-24T20:56:32.919Z,7.47
2018-05-24T20:59:00.824Z,6.30
2018-05-24T21:01:28.289Z,6.67
2018-05-24T21:03:55.736Z,6.17
2018-05-24T21:06:23.221Z,6.57
2018-05-24T21:08:50.660Z,6.10
2018-05-24T21:11:18.150Z,5.97
2018-05-24T21:13:45.624Z,7.57
2018-05-24T21:16:13.055Z,6.73
2018-05-24T21:18:40.503Z,6.07
2018-05-24T21:21:08.064Z,6.73
2018-05-24T21:23:35.511Z,6.73
2018-05-24T21:26:02.943Z,6.50
2018-05-24T21:28:30.457Z,6.50
2018-05-24T21:30:58.105Z,5.93
2018-05-24T21:33:25.609Z,7.13
2018-05-24T21:35:53.177Z,7.43
2018-05-24T21:38:20.657Z,7.10
2018-05-24T21:40:48.131Z,6.47
2018-05-24T21:43:15.858Z,6.50
2018-05-24T21:45:43.331Z,7.30
2018-05-24T21:48:10.891Z,7.20
2018-05-24T21:50:38.344Z,7.07
2018-05-24T21:53:05.809Z,9.20
2018-05-24T21:55:33.278Z,7.37
2018-05-24T21:58:00.723Z,6.87
2018-05-24T22:00:28.172Z,6.90
2018-05-24T22:02:55.642Z,6.90
2018-05-24T22:05:23.098Z,7.93
2018-05-24T22:07:50.606Z,7.67
2018-05-24T22:10:18.043Z,7.50
2018-05-24T22:12:45.495Z,8.60
2018-05-24T22:15:13.035Z,8.60
2018-05-24T22:17:40.484Z,6.80
2018-05-24T22:20:07.960Z,7.87
2018-05-24T22:22:35.383Z,7.27
2018-05-24T22:25:02.840Z,8.60
2018-05-24T22:27:30.343Z,10.50
2018-05-24T22:29:58.132Z,7.47
2018-05-24T22:32:26.022Z,6.73
2018-05-24T22:34:53.476Z,8.17
2018-05-24T22:37:20.928Z,8.87
2018-05-24T22:39:48.403Z,9.50
2018-05-24T22:42:15.855Z,7.90
2018-05-24T22:44:43.432Z,7.80
2018-05-24T22:47:10.879Z,8.57
2018-05-24T22:49:38.330Z,8.13
2018-05-24T22:52:05.777Z,7.13
2018-05-24T22:54:33.239Z,7.77
2018-05-24T22:57:01.032Z,7.10
2018-05-24T22:59:28.540Z,8.70
2018-05-24T23:01:55.938Z,8.43
2018-05-24T23:04:23.389Z,7.90
2018-05-24T23:06:50.838Z,8.27
2018-05-24T23:09:18.409Z,7.70
2018-05-24T23:11:45.889Z,10.13
2018-05-24T23:14:13.427Z,10.60
2018-05-24T23:16:41.132Z,10.30
2018-05-24T23:19:08.575Z,9.97
2018-05-24T23:21:36.038Z,8.53
2018-05-24T23:24:03.475Z,8.30
2018-05-24T23:26:30.992Z,11.03
2018-05-24T23:28:58.444Z,11.33
2018-05-24T23:31:25.949Z,9.87
2018-05-24T23:33:53.398Z,8.70
2018-05-24T23:36:21.242Z,10.07
2018-05-24T23:38:48.682Z,8.57
2018-05-24T23:41:16.150Z,8.73
2018-05-24T23:43:44.514Z,9.00
2018-05-24T23:46:11.964Z,9.13
2018-05-24T23:48:39.764Z,9.70
2018-05-24T23:51:07.227Z,8.73
2018-05-24T23:53:34.781Z,9.03
2018-05-24T23:56:02.222Z,7.83
2018-05-24T23:58:29.672Z,9.53
